createdAt,value
2018-10-07T00:00:04.305Z,194
2018-10-07T00:00:16.473Z,194
2018-10-07T00:00:28.674Z,194
2018-10-07T00:00:40.890Z,194
2018-10-07T00:00:53.136Z,194
2018-10-07T00:01:05.346Z,194
2018-10-07T00:01:17.513Z,194
2018-10-07T00:01:29.696Z,194
2018-10-07T00:01:41.863Z,194
2018-10-07T00:01:54.160Z,194
2018-10-07T00:02:06.337Z,194
2018-10-07T00:02:18.522Z,194
2018-10-07T00:02:30.692Z,194
2018-10-07T00:02:42.859Z,194
2018-10-07T00:02:55.007Z,194
2018-10-07T00:03:07.166Z,194
2018-10-07T00:03:19.314Z,194
2018-10-07T00:03:31.518Z,194
2018-10-07T00:03:43.673Z,194
2018-10-07T00:03:55.987Z,194
2018-10-07T00:04:08.147Z,191
2018-10-07T00:04:20.317Z,176
2018-10-07T00:04:32.497Z,175
2018-10-07T00:04:44.689Z,174
2018-10-07T00:04:56.953Z,174
2018-10-07T00:05:09.123Z,168
2018-10-07T00:05:21.291Z,168
2018-10-07T00:05:33.482Z,168
2018-10-07T00:05:45.648Z,168
2018-10-07T00:05:57.799Z,168
2018-10-07T00:06:09.959Z,168
2018-10-07T00:06:22.338Z,168
2018-10-07T00:06:34.512Z,169
2018-10-07T00:06:46.704Z,169
2018-10-07T00:06:58.868Z,175
2018-10-07T00:07:11.047Z,177
2018-10-07T00:07:23.211Z,176
2018-10-07T00:07:35.397Z,176
2018-10-07T00:07:47.575Z,176
2018-10-07T00:07:59.738Z,176
2018-10-07T00:08:11.918Z,176
2018-10-07T00:08:24.105Z,176
2018-10-07T00:08:36.269Z,176
2018-10-07T00:08:48.409Z,176
2018-10-07T00:09:00.577Z,176
2018-10-07T00:09:12.869Z,176
2018-10-07T00:09:25.081Z,176
2018-10-07T00:09:37.228Z,176
2018-10-07T00:09:49.382Z,176
2018-10-07T00:10:01.567Z,176
2018-10-07T00:10:13.765Z,176
2018-10-07T00:10:25.929Z,176
2018-10-07T00:10:38.107Z,176
2018-10-07T00:10:50.274Z,176
2018-10-07T00:11:02.439Z,176
2018-10-07T00:11:14.612Z,176
2018-10-07T00:11:26.767Z,176
2018-10-07T00:11:38.934Z,176
2018-10-07T00:11:51.122Z,176
2018-10-07T00:12:03.337Z,176
2018-10-07T00:12:15.500Z,176
2018-10-07T00:12:27.669Z,176
2018-10-07T00:12:40.027Z,176
2018-10-07T00:12:52.387Z,176
2018-10-07T00:13:04.562Z,176
2018-10-07T00:13:16.761Z,176
2018-10-07T00:13:29.032Z,176
2018-10-07T00:13:41.188Z,176
2018-10-07T00:13:53.356Z,176
2018-10-07T00:14:05.534Z,176
2018-10-07T00:14:17.701Z,176
2018-10-07T00:14:29.869Z,176
2018-10-07T00:14:42.034Z,176
2018-10-07T00:14:54.219Z,176
2018-10-07T00:15:06.394Z,176
2018-10-07T00:15:18.566Z,176
2018-10-07T00:15:30.724Z,176
2018-10-07T00:15:42.862Z,176
2018-10-07T00:15:55.013Z,176
2018-10-07T00:16:07.171Z,176
2018-10-07T00:16:19.336Z,176
2018-10-07T00:16:31.566Z,176
2018-10-07T00:16:43.732Z,176
2018-10-07T00:16:55.872Z,176
2018-10-07T00:17:08.319Z,176
2018-10-07T00:17:20.483Z,176
2018-10-07T00:17:32.645Z,176
2018-10-07T00:17:44.788Z,176
2018-10-07T00:17:56.940Z,176
2018-10-07T00:18:09.099Z,176
2018-10-07T00:18:21.275Z,176
2018-10-07T00:18:33.424Z,176
2018-10-07T00:18:45.581Z,176
2018-10-07T00:18:57.753Z,176
2018-10-07T00:19:09.913Z,176
2018-10-07T00:19:22.084Z,176
2018-10-07T00:19:34.233Z,176
2018-10-07T00:19:46.392Z,176
2018-10-07T00:19:58.753Z,176
2018-10-07T00:20:10.895Z,176
2018-10-07T00:20:23.059Z,176
2018-10-07T00:20:35.215Z,176
2018-10-07T00:20:47.368Z,176
2018-10-07T00:20:59.562Z,176
2018-10-07T00:21:11.724Z,176
2018-10-07T00:21:24.048Z,176
2018-10-07T00:21:36.232Z,176
2018-10-07T00:21:48.390Z,176
2018-10-07T00:22:00.540Z,176
2018-10-07T00:22:12.765Z,176
2018-10-07T00:22:24.973Z,176
2018-10-07T00:22:37.144Z,176
2018-10-07T00:22:49.300Z,176
2018-10-07T00:23:01.449Z,176
2018-10-07T00:23:13.635Z,176
2018-10-07T00:23:25.808Z,176
2018-10-07T00:23:37.960Z,176
2018-10-07T00:23:50.147Z,176
2018-10-07T00:24:02.399Z,176
2018-10-07T00:24:14.714Z,176
2018-10-07T00:24:26.901Z,176
2018-10-07T00:24:39.087Z,176
2018-10-07T00:24:51.249Z,176
2018-10-07T00:25:03.398Z,176
2018-10-07T00:25:15.555Z,176
2018-10-07T00:25:27.726Z,176
2018-10-07T00:25:39.868Z,176
2018-10-07T00:25:52.029Z,176
2018-10-07T00:26:04.194Z,176
2018-10-07T00:26:16.354Z,176
2018-10-07T00:26:28.527Z,176
2018-10-07T00:26:40.677Z,176
2018-10-07T00:26:52.818Z,176
2018-10-07T00:27:04.964Z,176
2018-10-07T00:27:17.110Z,176
2018-10-07T00:27:29.252Z,176
2018-10-07T00:27:41.468Z,176
2018-10-07T00:27:53.625Z,176
2018-10-07T00:28:05.772Z,176
2018-10-07T00:28:17.912Z,176
2018-10-07T00:28:30.077Z,176
2018-10-07T00:28:42.247Z,176
2018-10-07T00:28:54.412Z,176
2018-10-07T00:29:06.635Z,176
2018-10-07T00:29:18.808Z,176
2018-10-07T00:29:30.978Z,176
2018-10-07T00:29:43.135Z,176
2018-10-07T00:29:55.311Z,176
2018-10-07T00:30:07.507Z,176
2018-10-07T00:30:19.672Z,176
2018-10-07T00:30:31.831Z,176
2018-10-07T00:30:44.123Z,176
2018-10-07T00:30:56.311Z,176
2018-10-07T00:31:08.466Z,176
2018-10-07T00:31:20.625Z,176
2018-10-07T00:31:32.916Z,176
2018-10-07T00:31:45.060Z,176
2018-10-07T00:31:57.203Z,176
2018-10-07T00:32:09.372Z,176
2018-10-07T00:32:21.524Z,176
2018-10-07T00:32:33.696Z,176
2018-10-07T00:32:45.877Z,176
2018-10-07T00:32:58.059Z,176
2018-10-07T00:33:10.250Z,176
2018-10-07T00:33:22.411Z,176
2018-10-07T00:33:34.916Z,176
2018-10-07T00:33:47.064Z,176
2018-10-07T00:33:59.259Z,176
2018-10-07T00:34:11.444Z,176
2018-10-07T00:34:23.607Z,176
2018-10-07T00:34:35.785Z,176
2018-10-07T00:34:47.932Z,176
2018-10-07T00:35:00.086Z,176
2018-10-07T00:35:12.258Z,176
2018-10-07T00:35:24.419Z,176
2018-10-07T00:35:36.678Z,176
2018-10-07T00:35:48.997Z,176
2018-10-07T00:36:01.143Z,176
2018-10-07T00:36:13.340Z,176
2018-10-07T00:36:25.679Z,176
2018-10-07T00:36:37.837Z,176
2018-10-07T00:36:50.096Z,176
2018-10-07T00:37:02.274Z,176
2018-10-07T00:37:14.493Z,176
2018-10-07T00:37:26.683Z,176
2018-10-07T00:37:38.856Z,176
2018-10-07T00:37:51.020Z,176
2018-10-07T00:38:03.858Z,176
2018-10-07T00:38:16.006Z,176
2018-10-07T00:38:28.195Z,176
2018-10-07T00:38:40.369Z,176
2018-10-07T00:38:52.513Z,176
2018-10-07T00:39:04.675Z,176
2018-10-07T00:39:16.830Z,176
2018-10-07T00:39:28.985Z,176
2018-10-07T00:39:41.299Z,176
2018-10-07T00:39:53.555Z,176
2018-10-07T00:40:05.767Z,176
2018-10-07T00:40:17.940Z,176
2018-10-07T00:40:30.111Z,176
2018-10-07T00:40:42.291Z,176
2018-10-07T00:40:54.457Z,176
2018-10-07T00:41:06.635Z,176
2018-10-07T00:41:18.803Z,176
2018-10-07T00:41:30.967Z,177
2018-10-07T00:41:43.258Z,177
2018-10-07T00:41:55.422Z,176
2018-10-07T00:42:07.595Z,176
2018-10-07T00:42:19.762Z,176
2018-10-07T00:42:31.927Z,176
2018-10-07T00:42:44.261Z,176
2018-10-07T00:42:56.417Z,176
2018-10-07T00:43:08.679Z,176
2018-10-07T00:43:20.830Z,176
2018-10-07T00:43:32.995Z,176
2018-10-07T00:43:45.157Z,176
2018-10-07T00:43:57.299Z,176
2018-10-07T00:44:09.541Z,176
2018-10-07T00:44:21.703Z,176
2018-10-07T00:44:33.902Z,176
2018-10-07T00:44:46.089Z,176
2018-10-07T00:44:58.263Z,176
2018-10-07T00:45:11.040Z,176
2018-10-07T00:45:23.247Z,176
2018-10-07T00:45:35.392Z,176
2018-10-07T00:45:47.528Z,176
2018-10-07T00:45:59.681Z,176
2018-10-07T00:46:11.860Z,176
2018-10-07T00:46:24.016Z,176
2018-10-07T00:46:36.189Z,176
2018-10-07T00:46:48.354Z,176
2018-10-07T00:47:00.509Z,176
2018-10-07T00:47:12.685Z,176
2018-10-07T00:47:24.845Z,176
2018-10-07T00:47:37.023Z,176
2018-10-07T00:47:49.182Z,176
2018-10-07T00:48:01.351Z,176
2018-10-07T00:48:13.521Z,176
2018-10-07T00:48:25.687Z,176
2018-10-07T00:48:37.850Z,176
2018-10-07T00:48:49.993Z,176
2018-10-07T00:49:02.143Z,176
2018-10-07T00:49:14.289Z,177
2018-10-07T00:49:26.649Z,176
2018-10-07T00:49:38.821Z,176
2018-10-07T00:49:50.994Z,176
2018-10-07T00:50:03.159Z,176
2018-10-07T00:50:15.455Z,176
2018-10-07T00:50:27.812Z,176
2018-10-07T00:50:39.969Z,176
2018-10-07T00:50:52.165Z,176
2018-10-07T00:51:04.348Z,176
2018-10-07T00:51:16.534Z,176
2018-10-07T00:51:28.673Z,176
2018-10-07T00:51:40.814Z,176
2018-10-07T00:51:52.980Z,176
2018-10-07T00:52:05.164Z,176
2018-10-07T00:52:17.316Z,176
2018-10-07T00:52:29.480Z,176
2018-10-07T00:52:41.663Z,176
2018-10-07T00:52:53.814Z,176
2018-10-07T00:53:05.963Z,176
2018-10-07T00:53:18.559Z,176
2018-10-07T00:53:30.712Z,176
2018-10-07T00:53:42.878Z,176
2018-10-07T00:53:55.091Z,176
2018-10-07T00:54:07.238Z,176
2018-10-07T00:54:19.388Z,176
2018-10-07T00:54:31.566Z,176
2018-10-07T00:54:43.805Z,176
2018-10-07T00:54:55.981Z,176
2018-10-07T00:55:08.157Z,176
2018-10-07T00:55:20.813Z,176
2018-10-07T00:55:32.977Z,176
2018-10-07T00:55:45.134Z,176
2018-10-07T00:55:57.280Z,176
2018-10-07T00:56:09.450Z,176
2018-10-07T00:56:21.611Z,176
2018-10-07T00:56:33.751Z,176
2018-10-07T00:56:45.903Z,176
2018-10-07T00:56:58.069Z,176
2018-10-07T00:57:10.234Z,176
2018-10-07T00:57:22.413Z,176
2018-10-07T00:57:34.722Z,176
2018-10-07T00:57:46.912Z,176
2018-10-07T00:57:59.095Z,176
2018-10-07T00:58:11.242Z,176
2018-10-07T00:58:23.579Z,176
2018-10-07T00:58:35.766Z,176
2018-10-07T00:58:47.910Z,176
2018-10-07T00:59:00.058Z,176
2018-10-07T00:59:12.219Z,176
2018-10-07T00:59:24.365Z,176
2018-10-07T00:59:36.522Z,176
2018-10-07T00:59:48.690Z,176
2018-10-07T01:00:00.951Z,176
2018-10-07T01:00:13.167Z,176
2018-10-07T01:00:25.334Z,176
2018-10-07T01:00:37.514Z,176
2018-10-07T01:00:49.713Z,176
2018-10-07T01:01:01.899Z,176
2018-10-07T01:01:14.069Z,176
2018-10-07T01:01:26.255Z,176
2018-10-07T01:01:38.424Z,176
2018-10-07T01:01:50.668Z,176
2018-10-07T01:02:02.853Z,176
2018-10-07T01:02:15.063Z,176
2018-10-07T01:02:27.240Z,176
2018-10-07T01:02:39.385Z,176
2018-10-07T01:02:51.541Z,176
2018-10-07T01:03:03.710Z,176
2018-10-07T01:03:15.887Z,176
2018-10-07T01:03:28.028Z,176
2018-10-07T01:03:40.193Z,176
2018-10-07T01:03:52.519Z,176
2018-10-07T01:04:04.827Z,176
2018-10-07T01:04:16.975Z,176
2018-10-07T01:04:29.137Z,176
2018-10-07T01:04:41.308Z,176
2018-10-07T01:04:53.573Z,176
2018-10-07T01:05:05.742Z,176
2018-10-07T01:05:17.884Z,176
2018-10-07T01:05:30.045Z,176
2018-10-07T01:05:42.198Z,176
2018-10-07T01:05:54.348Z,176
2018-10-07T01:06:06.553Z,176
2018-10-07T01:06:18.710Z,176
2018-10-07T01:06:30.856Z,176
2018-10-07T01:06:43.591Z,176
2018-10-07T01:06:55.731Z,176
2018-10-07T01:07:07.898Z,176
2018-10-07T01:07:20.107Z,176
2018-10-07T01:07:32.359Z,176
2018-10-07T01:07:44.514Z,176
2018-10-07T01:07:56.677Z,176
2018-10-07T01:08:08.827Z,176
2018-10-07T01:08:20.959Z,176
2018-10-07T01:08:33.134Z,176
2018-10-07T01:08:45.300Z,176
2018-10-07T01:08:57.452Z,176
2018-10-07T01:09:09.625Z,176
2018-10-07T01:09:21.791Z,176
2018-10-07T01:09:33.961Z,176
2018-10-07T01:09:46.129Z,176
2018-10-07T01:09:58.298Z,176
2018-10-07T01:10:10.476Z,176
2018-10-07T01:10:22.636Z,176
2018-10-07T01:10:34.805Z,176
2018-10-07T01:10:46.949Z,176
2018-10-07T01:10:59.102Z,176
2018-10-07T01:11:11.259Z,176
2018-10-07T01:11:23.451Z,176
2018-10-07T01:11:35.641Z,176
2018-10-07T01:11:48.079Z,176
2018-10-07T01:12:00.268Z,176
2018-10-07T01:12:12.411Z,176
2018-10-07T01:12:24.588Z,176
2018-10-07T01:12:36.919Z,176
2018-10-07T01:12:49.073Z,176
2018-10-07T01:13:01.280Z,176
2018-10-07T01:13:13.457Z,176
2018-10-07T01:13:25.814Z,176
2018-10-07T01:13:37.991Z,176
2018-10-07T01:13:50.176Z,176
2018-10-07T01:14:02.364Z,176
2018-10-07T01:14:14.558Z,176
2018-10-07T01:14:26.718Z,176
2018-10-07T01:14:38.900Z,176
2018-10-07T01:14:51.081Z,176
2018-10-07T01:15:03.261Z,176
2018-10-07T01:15:15.448Z,176
2018-10-07T01:15:27.606Z,176
2018-10-07T01:15:39.768Z,176
2018-10-07T01:15:51.940Z,176
2018-10-07T01:16:04.180Z,176
2018-10-07T01:16:16.455Z,176
2018-10-07T01:16:28.609Z,176
2018-10-07T01:16:40.756Z,176
2018-10-07T01:16:52.917Z,176
2018-10-07T01:17:05.098Z,176
2018-10-07T01:17:17.406Z,176
2018-10-07T01:17:29.558Z,176
2018-10-07T01:17:41.753Z,176
2018-10-07T01:17:53.919Z,176
2018-10-07T01:18:06.111Z,176
2018-10-07T01:18:18.265Z,176
2018-10-07T01:18:30.417Z,176
2018-10-07T01:18:42.558Z,176
2018-10-07T01:18:54.734Z,176
2018-10-07T01:19:06.948Z,176
2018-10-07T01:19:19.120Z,176
2018-10-07T01:19:31.278Z,176
2018-10-07T01:19:43.454Z,176
2018-10-07T01:19:55.805Z,176
2018-10-07T01:20:07.975Z,176
2018-10-07T01:20:20.280Z,176
2018-10-07T01:20:32.621Z,176
2018-10-07T01:20:44.775Z,176
2018-10-07T01:20:56.959Z,176
2018-10-07T01:21:09.132Z,176
2018-10-07T01:21:21.446Z,176
2018-10-07T01:21:33.604Z,176
2018-10-07T01:21:45.783Z,176
2018-10-07T01:21:58.023Z,176
2018-10-07T01:22:10.222Z,176
2018-10-07T01:22:22.406Z,176
2018-10-07T01:22:34.578Z,176
2018-10-07T01:22:46.768Z,176
2018-10-07T01:22:58.932Z,176
2018-10-07T01:23:11.099Z,176
2018-10-07T01:23:23.259Z,176
2018-10-07T01:23:35.410Z,176
2018-10-07T01:23:47.573Z,176
2018-10-07T01:23:59.722Z,176
2018-10-07T01:24:12.290Z,176
2018-10-07T01:24:24.458Z,176
2018-10-07T01:24:36.608Z,176
2018-10-07T01:24:48.796Z,176
2018-10-07T01:25:00.936Z,176
2018-10-07T01:25:13.095Z,176
2018-10-07T01:25:25.247Z,176
2018-10-07T01:25:37.387Z,176
2018-10-07T01:25:49.671Z,176
2018-10-07T01:26:01.833Z,176
2018-10-07T01:26:14.022Z,176
2018-10-07T01:26:26.200Z,176
2018-10-07T01:26:38.349Z,176
2018-10-07T01:26:50.511Z,176
2018-10-07T01:27:02.727Z,176
2018-10-07T01:27:14.888Z,176
2018-10-07T01:27:27.042Z,176
2018-10-07T01:27:39.201Z,176
2018-10-07T01:27:51.433Z,176
2018-10-07T01:28:03.631Z,176
2018-10-07T01:28:15.814Z,176
2018-10-07T01:28:27.989Z,176
2018-10-07T01:28:40.147Z,176
2018-10-07T01:28:52.312Z,176
2018-10-07T01:29:04.494Z,176
2018-10-07T01:29:16.774Z,176
2018-10-07T01:29:28.950Z,176
2018-10-07T01:29:41.128Z,176
2018-10-07T01:29:53.320Z,176
2018-10-07T01:30:05.521Z,176
2018-10-07T01:30:17.702Z,176
2018-10-07T01:30:29.866Z,176
2018-10-07T01:30:42.090Z,176
2018-10-07T01:30:54.251Z,176
2018-10-07T01:31:06.483Z,176
2018-10-07T01:31:18.657Z,176
2018-10-07T01:31:30.830Z,176
2018-10-07T01:31:43.008Z,176
2018-10-07T01:31:55.161Z,176
2018-10-07T01:32:07.311Z,173
2018-10-07T01:32:19.628Z,173
2018-10-07T01:32:31.784Z,173
2018-10-07T01:32:43.941Z,173
2018-10-07T01:32:56.107Z,173
2018-10-07T01:33:08.280Z,173
2018-10-07T01:33:20.447Z,173
2018-10-07T01:33:32.606Z,173
2018-10-07T01:33:44.768Z,173
2018-10-07T01:33:56.941Z,173
2018-10-07T01:34:09.087Z,173
2018-10-07T01:34:21.266Z,173
2018-10-07T01:34:33.423Z,173
2018-10-07T01:34:45.574Z,173
2018-10-07T01:34:57.734Z,173
2018-10-07T01:35:09.900Z,173
2018-10-07T01:35:22.091Z,173
2018-10-07T01:35:34.757Z,173
2018-10-07T01:35:46.950Z,173
2018-10-07T01:35:59.321Z,173
2018-10-07T01:36:11.498Z,173
2018-10-07T01:36:23.659Z,173
2018-10-07T01:36:35.814Z,173
2018-10-07T01:36:48.021Z,173
2018-10-07T01:37:00.182Z,173
2018-10-07T01:37:12.426Z,173
2018-10-07T01:37:24.639Z,178
2018-10-07T01:37:36.815Z,178
2018-10-07T01:37:48.989Z,178
2018-10-07T01:38:01.413Z,178
2018-10-07T01:38:13.736Z,178
2018-10-07T01:38:26.107Z,178
2018-10-07T01:38:38.272Z,178
2018-10-07T01:38:50.430Z,178
2018-10-07T01:39:02.575Z,178
2018-10-07T01:39:14.737Z,178
2018-10-07T01:39:26.895Z,178
2018-10-07T01:39:39.041Z,178
2018-10-07T01:39:51.353Z,178
2018-10-07T01:40:03.526Z,178
2018-10-07T01:40:15.686Z,178
2018-10-07T01:40:27.871Z,178
2018-10-07T01:40:40.026Z,178
2018-10-07T01:40:52.586Z,178
2018-10-07T01:41:04.733Z,178
2018-10-07T01:41:16.892Z,178
2018-10-07T01:41:29.054Z,178
2018-10-07T01:41:41.226Z,178
2018-10-07T01:41:53.402Z,178
2018-10-07T01:42:05.558Z,178
2018-10-07T01:42:17.737Z,178
2018-10-07T01:42:29.900Z,178
2018-10-07T01:42:42.067Z,178
2018-10-07T01:42:54.230Z,178
2018-10-07T01:43:06.387Z,178
2018-10-07T01:43:18.581Z,178
2018-10-07T01:43:30.749Z,178
2018-10-07T01:43:42.951Z,178
2018-10-07T01:43:55.114Z,178
2018-10-07T01:44:07.801Z,178
2018-10-07T01:44:20.044Z,178
2018-10-07T01:44:32.190Z,178
2018-10-07T01:44:44.332Z,180
2018-10-07T01:44:56.493Z,180
2018-10-07T01:45:08.875Z,180
2018-10-07T01:45:21.219Z,180
2018-10-07T01:45:33.382Z,180
2018-10-07T01:45:45.524Z,180
2018-10-07T01:45:57.741Z,180
2018-10-07T01:46:09.872Z,180
2018-10-07T01:46:22.036Z,180
2018-10-07T01:46:34.184Z,180
2018-10-07T01:46:46.349Z,180
2018-10-07T01:46:58.508Z,180
2018-10-07T01:47:10.659Z,180
2018-10-07T01:47:22.823Z,180
2018-10-07T01:47:34.984Z,180
2018-10-07T01:47:47.132Z,180
2018-10-07T01:47:59.283Z,180
2018-10-07T01:48:11.432Z,180
2018-10-07T01:48:23.576Z,180
2018-10-07T01:48:35.749Z,180
2018-10-07T01:48:47.921Z,180
2018-10-07T01:49:00.085Z,180
2018-10-07T01:49:12.305Z,180
2018-10-07T01:49:24.453Z,180
2018-10-07T01:49:37.059Z,180
2018-10-07T01:49:49.222Z,180
2018-10-07T01:50:01.402Z,180
2018-10-07T01:50:13.712Z,180
2018-10-07T01:50:26.002Z,180
2018-10-07T01:50:38.229Z,180
2018-10-07T01:50:50.461Z,180
2018-10-07T01:51:02.599Z,180
2018-10-07T01:51:14.765Z,180
2018-10-07T01:51:26.930Z,180
2018-10-07T01:51:39.097Z,180
2018-10-07T01:51:51.249Z,180
2018-10-07T01:52:03.428Z,180
2018-10-07T01:52:15.616Z,180
2018-10-07T01:52:27.808Z,180
2018-10-07T01:52:39.953Z,180
2018-10-07T01:52:52.122Z,180
2018-10-07T01:53:04.305Z,180
2018-10-07T01:53:16.560Z,180
2018-10-07T01:53:28.721Z,180
2018-10-07T01:53:40.947Z,180
2018-10-07T01:53:53.090Z,180
2018-10-07T01:54:05.251Z,172
2018-10-07T01:54:17.399Z,171
2018-10-07T01:54:29.552Z,171
2018-10-07T01:54:41.754Z,177
2018-10-07T01:54:53.919Z,177
2018-10-07T01:55:06.132Z,177
2018-10-07T01:55:18.304Z,177
2018-10-07T01:55:30.575Z,177
2018-10-07T01:55:42.768Z,177
2018-10-07T01:55:54.912Z,177
2018-10-07T01:56:07.077Z,177
2018-10-07T01:56:19.243Z,177
2018-10-07T01:56:31.490Z,177
2018-10-07T01:56:43.647Z,177
2018-10-07T01:56:55.803Z,177
2018-10-07T01:57:07.998Z,177
2018-10-07T01:57:20.202Z,177
2018-10-07T01:57:32.887Z,177
2018-10-07T01:57:45.043Z,177
2018-10-07T01:57:57.243Z,177
2018-10-07T01:58:09.393Z,177
2018-10-07T01:58:21.564Z,177
2018-10-07T01:58:33.704Z,177
2018-10-07T01:58:45.903Z,177
2018-10-07T01:58:58.192Z,177
2018-10-07T01:59:10.426Z,177
2018-10-07T01:59:23.302Z,177
2018-10-07T01:59:36.568Z,177
2018-10-07T01:59:48.756Z,177
2018-10-07T02:00:01.033Z,177
2018-10-07T02:00:13.233Z,177
2018-10-07T02:00:25.412Z,177
2018-10-07T02:00:37.636Z,177
2018-10-07T02:00:49.850Z,177
2018-10-07T02:01:02.089Z,177
2018-10-07T02:01:14.335Z,177
2018-10-07T02:01:26.584Z,177
2018-10-07T02:01:38.813Z,177
2018-10-07T02:01:51.152Z,177
2018-10-07T02:02:03.405Z,177
2018-10-07T02:02:15.619Z,177
2018-10-07T02:02:27.765Z,177
2018-10-07T02:02:39.924Z,177
2018-10-07T02:02:52.117Z,177
2018-10-07T02:03:04.279Z,177
2018-10-07T02:03:16.445Z,177
2018-10-07T02:03:28.599Z,177
2018-10-07T02:03:40.756Z,177
2018-10-07T02:03:53.087Z,177
2018-10-07T02:04:05.256Z,177
2018-10-07T02:04:17.424Z,177
2018-10-07T02:04:29.647Z,177
2018-10-07T02:04:41.814Z,177
2018-10-07T02:04:54.259Z,177
2018-10-07T02:05:07.365Z,177
2018-10-07T02:05:20.573Z,177
2018-10-07T02:05:32.738Z,177
2018-10-07T02:05:44.914Z,177
2018-10-07T02:05:57.074Z,177
2018-10-07T02:06:09.229Z,177
2018-10-07T02:06:21.416Z,177
2018-10-07T02:06:33.914Z,177
2018-10-07T02:06:46.073Z,177
2018-10-07T02:06:58.253Z,177
2018-10-07T02:07:10.484Z,177
2018-10-07T02:07:22.653Z,177
2018-10-07T02:07:34.827Z,177
2018-10-07T02:07:46.974Z,177
2018-10-07T02:07:59.150Z,177
2018-10-07T02:08:11.338Z,177
2018-10-07T02:08:23.516Z,177
2018-10-07T02:08:35.682Z,177
2018-10-07T02:08:47.841Z,177
2018-10-07T02:09:00.014Z,177
2018-10-07T02:09:12.211Z,177
2018-10-07T02:09:24.449Z,177
2018-10-07T02:09:36.633Z,177
2018-10-07T02:09:48.835Z,177
2018-10-07T02:10:00.988Z,177
2018-10-07T02:10:13.198Z,177
2018-10-07T02:10:25.345Z,177
2018-10-07T02:10:37.498Z,177
2018-10-07T02:10:49.671Z,177
2018-10-07T02:11:01.884Z,177
2018-10-07T02:11:14.079Z,177
2018-10-07T02:11:26.259Z,177
2018-10-07T02:11:38.444Z,177
2018-10-07T02:11:50.624Z,177
2018-10-07T02:12:02.792Z,177
2018-10-07T02:12:14.976Z,177
2018-10-07T02:12:27.171Z,177
2018-10-07T02:12:39.504Z,177
2018-10-07T02:12:51.709Z,177
2018-10-07T02:13:03.896Z,177
2018-10-07T02:13:16.093Z,177
2018-10-07T02:13:28.456Z,177
2018-10-07T02:13:40.638Z,177
2018-10-07T02:13:53.483Z,177
2018-10-07T02:14:06.788Z,177
2018-10-07T02:14:18.983Z,177
2018-10-07T02:14:31.149Z,177
2018-10-07T02:14:43.318Z,177
2018-10-07T02:14:55.503Z,177
2018-10-07T02:15:07.717Z,177
2018-10-07T02:15:19.897Z,177
2018-10-07T02:15:32.053Z,177
2018-10-07T02:15:44.205Z,177
2018-10-07T02:15:56.357Z,177
2018-10-07T02:16:08.515Z,177
2018-10-07T02:16:20.661Z,177
2018-10-07T02:16:32.828Z,177
2018-10-07T02:16:44.973Z,177
2018-10-07T02:16:57.169Z,177
2018-10-07T02:17:09.717Z,177
2018-10-07T02:17:22.302Z,177
2018-10-07T02:17:34.463Z,177
2018-10-07T02:17:46.680Z,177
2018-10-07T02:17:58.822Z,177
2018-10-07T02:18:10.989Z,177
2018-10-07T02:18:23.176Z,177
2018-10-07T02:18:35.367Z,177
2018-10-07T02:18:47.515Z,177
2018-10-07T02:18:59.701Z,177
2018-10-07T02:19:11.860Z,177
2018-10-07T02:19:24.010Z,177
2018-10-07T02:19:36.195Z,177
2018-10-07T02:19:48.404Z,177
2018-10-07T02:20:00.722Z,177
2018-10-07T02:20:12.880Z,177
2018-10-07T02:20:25.030Z,177
2018-10-07T02:20:37.181Z,177
2018-10-07T02:20:49.345Z,177
2018-10-07T02:21:01.519Z,177
2018-10-07T02:21:13.973Z,177
2018-10-07T02:21:26.358Z,177
2018-10-07T02:21:38.545Z,177
2018-10-07T02:21:50.708Z,177
2018-10-07T02:22:02.856Z,177
2018-10-07T02:22:15.025Z,177
2018-10-07T02:22:27.221Z,177
2018-10-07T02:22:39.368Z,177
2018-10-07T02:22:51.524Z,177
2018-10-07T02:23:03.677Z,177
2018-10-07T02:23:15.844Z,177
2018-10-07T02:23:28.032Z,177
2018-10-07T02:23:40.225Z,177
2018-10-07T02:23:52.409Z,177
2018-10-07T02:24:04.687Z,177
2018-10-07T02:24:16.970Z,177
2018-10-07T02:24:29.172Z,177
2018-10-07T02:24:41.326Z,177
2018-10-07T02:24:53.512Z,177
2018-10-07T02:25:05.686Z,177
2018-10-07T02:25:17.845Z,177
2018-10-07T02:25:30.006Z,177
2018-10-07T02:25:42.167Z,177
2018-10-07T02:25:54.317Z,177
2018-10-07T02:26:06.482Z,177
2018-10-07T02:26:18.841Z,177
2018-10-07T02:26:31.059Z,177
2018-10-07T02:26:43.206Z,177
2018-10-07T02:26:55.462Z,177
2018-10-07T02:27:07.626Z,177
2018-10-07T02:27:19.830Z,177
2018-10-07T02:27:31.992Z,177
2018-10-07T02:27:44.150Z,177
2018-10-07T02:27:56.296Z,177
2018-10-07T02:28:08.462Z,177
2018-10-07T02:28:20.630Z,177
2018-10-07T02:28:32.777Z,177
2018-10-07T02:28:44.950Z,177
2018-10-07T02:28:57.098Z,177
2018-10-07T02:29:09.256Z,177
2018-10-07T02:29:21.406Z,177
2018-10-07T02:29:33.566Z,177
2018-10-07T02:29:45.709Z,177
2018-10-07T02:29:57.860Z,177
2018-10-07T02:30:10.053Z,177
2018-10-07T02:30:22.305Z,177
2018-10-07T02:30:34.627Z,177
2018-10-07T02:30:46.836Z,177
2018-10-07T02:30:59.001Z,177
2018-10-07T02:31:11.194Z,177
2018-10-07T02:31:23.538Z,177
2018-10-07T02:31:35.719Z,177
2018-10-07T02:31:47.898Z,177
2018-10-07T02:32:00.112Z,177
2018-10-07T02:32:12.297Z,177
2018-10-07T02:32:24.482Z,177
2018-10-07T02:32:36.679Z,177
2018-10-07T02:32:48.936Z,177
2018-10-07T02:33:01.118Z,177
2018-10-07T02:33:13.292Z,177
2018-10-07T02:33:25.473Z,177
2018-10-07T02:33:37.716Z,177
2018-10-07T02:33:49.895Z,177
2018-10-07T02:34:02.071Z,177
2018-10-07T02:34:14.247Z,177
2018-10-07T02:34:26.411Z,177
2018-10-07T02:34:38.576Z,177
2018-10-07T02:34:50.809Z,177
2018-10-07T02:35:03.008Z,177
2018-10-07T02:35:15.318Z,177
2018-10-07T02:35:27.488Z,177
2018-10-07T02:35:39.837Z,177
2018-10-07T02:35:52.068Z,177
2018-10-07T02:36:04.435Z,177
2018-10-07T02:36:16.636Z,177
2018-10-07T02:36:28.975Z,177
2018-10-07T02:36:41.206Z,177
2018-10-07T02:36:53.372Z,177
2018-10-07T02:37:05.527Z,177
2018-10-07T02:37:17.709Z,177
2018-10-07T02:37:29.880Z,177
2018-10-07T02:37:42.057Z,177
2018-10-07T02:37:54.252Z,177
2018-10-07T02:38:06.426Z,177
2018-10-07T02:38:18.641Z,177
2018-10-07T02:38:31.141Z,177
2018-10-07T02:38:43.312Z,177
2018-10-07T02:38:55.466Z,177
2018-10-07T02:39:07.628Z,177
2018-10-07T02:39:19.876Z,177
2018-10-07T02:39:32.046Z,177
2018-10-07T02:39:44.833Z,177
2018-10-07T02:39:57.047Z,177
2018-10-07T02:40:09.206Z,177
2018-10-07T02:40:21.362Z,177
2018-10-07T02:40:33.528Z,177
2018-10-07T02:40:45.685Z,177
2018-10-07T02:40:57.849Z,177
2018-10-07T02:41:10.022Z,177
2018-10-07T02:41:22.228Z,177
2018-10-07T02:41:34.394Z,177
2018-10-07T02:41:46.574Z,177
2018-10-07T02:41:58.738Z,177
2018-10-07T02:42:10.947Z,177
2018-10-07T02:42:23.114Z,177
2018-10-07T02:42:35.277Z,177
2018-10-07T02:42:47.444Z,177
2018-10-07T02:42:59.599Z,177
2018-10-07T02:43:11.775Z,177
2018-10-07T02:43:23.934Z,177
2018-10-07T02:43:36.084Z,177
2018-10-07T02:43:48.240Z,177
2018-10-07T02:44:00.407Z,177
2018-10-07T02:44:12.686Z,177
2018-10-07T02:44:24.841Z,177
2018-10-07T02:44:37.040Z,177
2018-10-07T02:44:49.582Z,177
2018-10-07T02:45:01.839Z,177
2018-10-07T02:45:13.993Z,177
2018-10-07T02:45:26.150Z,177
2018-10-07T02:45:38.301Z,177
2018-10-07T02:45:50.469Z,177
2018-10-07T02:46:02.701Z,177
2018-10-07T02:46:14.887Z,177
2018-10-07T02:46:27.047Z,177
2018-10-07T02:46:39.280Z,177
2018-10-07T02:46:51.463Z,177
2018-10-07T02:47:03.647Z,177
2018-10-07T02:47:15.801Z,177
2018-10-07T02:47:27.981Z,177
2018-10-07T02:47:40.133Z,177
2018-10-07T02:47:52.296Z,177
2018-10-07T02:48:04.487Z,177